Time;durP1;ratioP1;P1;durP2;ratioP2;P2;SDS_P1;SDS_P2;PMS_P1;PMS_P2;Temp;Humidity;BMP_temperature;BMP_pressure;BME280_temperature;BME280_humidity;BME280_pressure;Samples;Min_cycle;Max_cycle;Signal;HPM_P1;HPM_P2
2022/12/16 00:01:37;;;;;;;32.65;23.15;;;3.30;99.90;;;;;;4910788;29;20047;-70
2022/12/16 00:04:03;;;;;;;39.17;29.42;;;3.30;99.90;;;;;;4909828;29;20040;-71
2022/12/16 00:06:32;;;;;;;47.38;32.85;;;3.40;99.90;;;;;;4910817;29;20057;-70
2022/12/16 00:08:58;;;;;;;25.02;17.23;;;3.40;99.90;;;;;;4912164;29;20606;-70
2022/12/16 00:11:24;;;;;;;27.63;19.92;;;3.40;99.90;;;;;;4910654;29;20130;-70
2022/12/16 00:13:50;;;;;;;21.65;14.82;;;3.40;99.90;;;;;;4921175;29;20051;-71
2022/12/16 00:16:17;;;;;;;22.15;16.23;;;3.40;99.90;;;;;;4918069;29;20040;-71
2022/12/16 00:18:44;;;;;;;18.85;13.32;;;3.40;99.90;;;;;;4922917;29;20661;-70
2022/12/16 00:21:10;;;;;;;23.10;16.00;;;3.40;99.90;;;;;;4914476;29;20039;-70
2022/12/16 00:23:38;;;;;;;27.13;20.73;;;3.40;99.90;;;;;;4915229;29;21808;-72
2022/12/16 00:26:04;;;;;;;23.08;17.45;;;3.40;99.90;;;;;;4914080;29;20503;-71
2022/12/16 00:28:30;;;;;;;32.83;25.55;;;3.40;99.90;;;;;;4909130;29;20062;-71
2022/12/16 00:30:57;;;;;;;30.90;23.80;;;3.30;99.90;;;;;;4915644;29;20031;-70
2022/12/16 00:33:24;;;;;;;22.63;16.73;;;3.30;99.90;;;;;;4918650;29;20047;-70
2022/12/16 00:35:51;;;;;;;37.13;25.92;;;3.30;99.90;;;;;;4916213;29;20119;-71
2022/12/16 00:38:17;;;;;;;16.77;11.75;;;3.30;99.90;;;;;;4914205;29;20059;-68
2022/12/16 00:40:43;;;;;;;17.65;13.38;;;3.20;99.90;;;;;;4910056;29;20052;-68
2022/12/16 00:43:09;;;;;;;31.20;23.67;;;3.20;99.90;;;;;;4912162;29;20063;-68
2022/12/16 00:45:35;;;;;;;12.38;10.20;;;3.20;99.90;;;;;;4915248;29;20122;-69
2022/12/16 00:48:01;;;;;;;15.05;10.73;;;3.30;99.90;;;;;;4919907;29;20042;-68
2022/12/16 00:50:27;;;;;;;14.15;10.43;;;3.30;99.90;;;;;;4910853;29;20043;-69
2022/12/16 00:52:52;;;;;;;12.10;9.48;;;3.30;99.90;;;;;;4916332;29;20040;-69
2022/12/16 00:55:19;;;;;;;13.50;8.95;;;3.20;99.90;;;;;;4909599;29;20046;-69
2022/12/16 00:57:44;;;;;;;10.80;9.07;;;3.20;99.90;;;;;;4912301;29;20492;-69
2022/12/16 01:00:12;;;;;;;11.55;8.38;;;3.20;99.90;;;;;;4904966;29;20056;-69
2022/12/16 01:02:40;;;;;;;10.35;8.40;;;3.20;99.90;;;;;;4915501;29;20043;-70
2022/12/16 01:05:06;;;;;;;10.52;8.15;;;3.20;99.90;;;;;;4916187;29;20076;-70
2022/12/16 01:07:32;;;;;;;9.98;8.57;;;3.10;99.90;;;;;;4914870;29;20039;-69
2022/12/16 01:09:58;;;;;;;9.80;7.40;;;3.10;99.90;;;;;;4915244;29;20052;-70
2022/12/16 01:12:24;;;;;;;8.73;6.82;;;3.10;99.90;;;;;;4909852;29;20661;-69
2022/12/16 01:14:50;;;;;;;7.40;6.15;;;3.10;99.90;;;;;;4916748;29;20059;-69
2022/12/16 01:17:15;;;;;;;8.73;6.53;;;3.20;99.90;;;;;;4907842;29;21888;-70
2022/12/16 01:19:41;;;;;;;6.72;5.88;;;3.20;99.90;;;;;;4916339;29;20114;-70
2022/12/16 01:22:07;;;;;;;7.70;5.90;;;3.20;99.90;;;;;;4904576;29;20491;-69
2022/12/16 01:24:32;;;;;;;7.22;5.80;;;3.30;99.90;;;;;;4916764;29;20070;-69
2022/12/16 01:26:58;;;;;;;7.28;5.63;;;3.30;99.90;;;;;;4911490;29;20488;-69
2022/12/16 01:29:24;;;;;;;6.72;5.00;;;3.20;99.90;;;;;;4911225;29;20127;-68
2022/12/16 01:31:50;;;;;;;6.18;5.05;;;3.20;99.90;;;;;;4902717;29;20046;-68
2022/12/16 01:34:16;;;;;;;5.70;5.10;;;3.30;99.90;;;;;;4911200;29;20040;-68
2022/12/16 01:36:42;;;;;;;5.93;5.30;;;3.30;99.90;;;;;;4913066;29;20051;-68
2022/12/16 01:39:10;;;;;;;7.38;5.72;;;3.30;99.90;;;;;;4911610;29;20172;-69
2022/12/16 01:41:37;;;;;;;6.57;5.63;;;3.30;99.90;;;;;;4915962;29;20416;-69
2022/12/16 01:44:17;;;;;;;6.75;5.30;;;3.30;99.90;;;;;;4906160;29;20102;-69
2022/12/16 01:46:49;;;;;;;6.68;5.55;;;3.30;99.90;;;;;;4913306;29;20048;-70
2022/12/16 01:49:28;;;;;;;5.57;4.95;;;3.40;99.90;;;;;;4910840;29;20138;-70
2022/12/16 01:51:59;;;;;;;6.22;5.10;;;3.40;99.90;;;;;;4913990;29;20032;-69
2022/12/16 01:54:38;;;;;;;5.97;5.15;;;3.40;99.90;;;;;;4907681;29;20399;-68
2022/12/16 01:57:11;;;;;;;5.93;5.00;;;3.40;99.90;;;;;;4911681;29;20118;-68
2022/12/16 01:59:41;;;;;;;5.50;4.45;;;3.40;99.90;;;;;;4911553;29;20050;-70
2022/12/16 02:02:08;;;;;;;5.38;4.80;;;3.40;99.90;;;;;;4909924;29;20491;-69
2022/12/16 02:04:34;;;;;;;5.13;4.55;;;3.40;99.90;;;;;;4913518;29;20080;-70
2022/12/16 02:07:00;;;;;;;5.60;4.70;;;3.40;99.90;;;;;;4911284;29;20040;-70
2022/12/16 02:09:26;;;;;;;6.72;5.55;;;3.30;99.90;;;;;;4912334;29;20384;-70
2022/12/16 02:12:28;;;;;;;6.47;5.07;;;3.20;99.90;;;;;;4911556;29;20552;-71
2022/12/16 02:15:17;;;;;;;5.97;5.38;;;3.20;99.90;;;;;;4909241;29;20150;-71
2022/12/16 02:17:59;;;;;;;5.18;4.68;;;3.30;99.90;;;;;;4908439;28;20040;-70
2022/12/16 02:20:45;;;;;;;5.73;5.10;;;3.40;99.90;;;;;;4912950;29;20054;-70
2022/12/16 02:23:38;;;;;;;7.28;4.90;;;3.40;99.90;;;;;;4894236;29;20282;-70
2022/12/16 02:26:23;;;;;;;6.25;4.68;;;3.40;99.90;;;;;;4915494;29;20031;-70
2022/12/16 02:29:24;;;;;;;4.97;4.47;;;3.40;99.90;;;;;;4911094;29;20055;-70
2022/12/16 02:32:00;;;;;;;5.35;4.82;;;3.40;99.90;;;;;;4896158;29;20067;-69
2022/12/16 02:34:40;;;;;;;4.85;4.35;;;3.40;99.90;;;;;;4910061;29;20034;-70
2022/12/16 02:37:34;;;;;;;4.95;4.32;;;3.40;99.90;;;;;;4907583;29;20032;-70
2022/12/16 02:40:05;;;;;;;4.72;4.22;;;3.40;99.90;;;;;;4901494;29;20042;-69
2022/12/16 02:42:39;;;;;;;5.43;4.90;;;3.40;99.90;;;;;;4911845;29;20051;-69
2022/12/16 02:45:16;;;;;;;5.07;4.30;;;3.40;99.90;;;;;;4901032;29;20157;-70
2022/12/16 02:47:44;;;;;;;5.68;4.78;;;3.40;99.90;;;;;;4910214;29;20197;-69
2022/12/16 02:50:39;;;;;;;4.68;4.22;;;3.40;99.90;;;;;;4909715;29;20059;-69
2022/12/16 02:53:07;;;;;;;5.22;4.22;;;3.40;99.90;;;;;;4903560;29;20081;-69
2022/12/16 02:56:17;;;;;;;5.15;4.65;;;3.40;99.90;;;;;;4906552;29;20044;-69
2022/12/16 02:58:55;;;;;;;4.38;3.92;;;3.40;99.90;;;;;;4909398;29;20036;-68
2022/12/16 03:02:13;;;;;;;4.60;4.10;;;3.40;99.90;;;;;;4906484;29;21149;-68
2022/12/16 03:04:53;;;;;;;5.80;4.40;;;3.40;99.90;;;;;;4909090;29;20695;-70
2022/12/16 03:07:22;;;;;;;5.95;4.65;;;3.30;99.90;;;;;;4917806;29;20373;-70
2022/12/16 03:09:49;;;;;;;5.50;4.50;;;3.40;99.90;;;;;;4920444;29;20132;-70
2022/12/16 03:12:18;;;;;;;4.93;4.43;;;3.40;99.90;;;;;;4914574;29;20059;-71
2022/12/16 03:14:47;;;;;;;5.57;4.43;;;3.40;99.90;;;;;;4916570;29;20080;-70
2022/12/16 03:17:15;;;;;;;5.10;4.53;;;3.40;99.90;;;;;;4914320;29;20036;-70
2022/12/16 03:19:48;;;;;;;3.83;3.42;;;3.40;99.90;;;;;;4919152;29;20035;-70
2022/12/16 03:22:22;;;;;;;4.28;3.88;;;3.40;99.90;;;;;;4914443;29;20032;-70
2022/12/16 03:24:48;;;;;;;4.78;4.28;;;3.40;99.90;;;;;;4912572;29;20108;-70
2022/12/16 03:27:33;;;;;;;5.30;4.20;;;3.40;99.90;;;;;;4913406;29;20040;-70
2022/12/16 03:30:01;;;;;;;5.18;4.35;;;3.40;99.90;;;;;;4913949;29;20172;-70
2022/12/16 03:32:36;;;;;;;5.22;3.80;;;3.40;99.90;;;;;;4912808;29;20135;-70
2022/12/16 03:35:32;;;;;;;5.35;4.28;;;3.40;99.90;;;;;;4907620;29;20044;-70
2022/12/16 03:38:00;;;;;;;4.72;4.03;;;3.50;99.90;;;;;;4912168;29;20028;-70
2022/12/16 03:40:27;;;;;;;4.80;4.13;;;3.50;99.90;;;;;;4913370;29;20048;-70
2022/12/16 03:42:54;;;;;;;7.03;4.50;;;3.50;99.90;;;;;;4914408;29;20075;-70
2022/12/16 03:45:28;;;;;;;5.57;4.28;;;3.60;99.90;;;;;;4909476;29;20031;-70
2022/12/16 03:47:56;;;;;;;5.22;4.03;;;3.50;99.90;;;;;;4915209;29;20064;-70
2022/12/16 03:50:30;;;;;;;5.05;4.22;;;3.60;99.90;;;;;;4905691;29;20059;-70
2022/12/16 03:52:55;;;;;;;4.45;4.05;;;3.60;99.90;;;;;;4908913;29;20038;-70
2022/12/16 03:55:21;;;;;;;4.97;4.47;;;3.70;99.90;;;;;;4905286;29;20048;-70
2022/12/16 03:57:46;;;;;;;4.97;3.85;;;3.60;99.90;;;;;;4908643;29;20035;-70
2022/12/16 04:00:13;;;;;;;4.78;3.85;;;3.60;99.90;;;;;;4904106;29;20078;-70
2022/12/16 04:02:38;;;;;;;4.15;2.88;;;3.50;99.90;;;;;;4909312;29;20123;-70
2022/12/16 04:05:04;;;;;;;3.97;3.58;;;3.50;99.90;;;;;;4909834;29;20054;-70
2022/12/16 04:07:31;;;;;;;3.78;3.38;;;3.50;99.90;;;;;;4908469;29;20032;-70
2022/12/16 04:09:56;;;;;;;3.15;2.85;;;3.50;99.90;;;;;;4914171;29;20123;-70
2022/12/16 04:26:03;;;;;;;2.38;2.08;;;3.60;99.90;;;;;;4910571;29;20417;-70
2022/12/16 04:28:29;;;;;;;2.50;2.30;;;3.60;99.90;;;;;;4912145;29;20047;-70
2022/12/16 04:30:55;;;;;;;3.17;2.25;;;3.70;99.90;;;;;;4909147;29;20685;-71
